Time;durP1;ratioP1;P1;durP2;ratioP2;P2;SDS_P1;SDS_P2;PMS_P1;PMS_P2;Temp;Humidity;BMP_temperature;BMP_pressure;BME280_temperature;BME280_humidity;BME280_pressure;Samples;Min_cycle;Max_cycle;Signal;HPM_P1;HPM_P2
2023/12/21 00:00:37;;;;;;;;;0.00;0.00;;;;;13.95;100.00;101488.25;5075260;28;71248;-80
2023/12/21 00:03:02;;;;;;;;;0.00;0.00;;;;;13.97;100.00;101481.19;5076238;28;45356;-79
2023/12/21 00:05:28;;;;;;;;;0.00;0.00;;;;;13.94;100.00;101487.38;5075711;28;45312;-79
2023/12/21 00:07:53;;;;;;;;;0.00;0.00;;;;;13.86;100.00;101485.91;5076134;28;45531;-80
2023/12/21 00:10:19;;;;;;;;;0.00;0.00;;;;;13.94;100.00;101476.91;5074816;28;75451;-79
2023/12/21 00:12:44;;;;;;;;;0.00;0.00;;;;;13.91;100.00;101463.06;5057525;28;45326;-80
2023/12/21 00:15:10;;;;;;;;;0.00;0.00;;;;;13.96;100.00;101453.31;5076075;28;45326;-79
2023/12/21 00:17:35;;;;;;;;;0.00;0.00;;;;;13.94;100.00;101457.72;5076466;28;45594;-79
2023/12/21 00:20:00;;;;;;;;;0.00;0.00;;;;;13.94;100.00;101448.13;5074853;28;67067;-80
2023/12/21 00:22:26;;;;;;;;;0.00;0.00;;;;;13.92;100.00;101457.78;5074928;28;45448;-79
2023/12/21 00:24:51;;;;;;;;;0.00;0.00;;;;;13.88;100.00;101440.47;5076095;28;45630;-80
2023/12/21 00:27:16;;;;;;;;;0.00;0.00;;;;;13.88;100.00;101422.16;5056946;28;58240;-79
2023/12/21 00:29:42;;;;;;;;;0.00;0.00;;;;;13.81;100.00;101438.94;5075280;28;46248;-79
2023/12/21 00:32:07;;;;;;;;;0.00;0.00;;;;;13.85;100.00;101435.31;5074799;28;69559;-79
2023/12/21 00:34:32;;;;;;;;;0.00;0.00;;;;;13.80;100.00;101444.22;5074989;28;64367;-78
2023/12/21 00:36:58;;;;;;;;;0.00;0.00;;;;;13.69;100.00;101432.34;5074785;28;68313;-79
2023/12/21 00:39:23;;;;;;;;;0.00;0.00;;;;;13.61;100.00;101425.63;5073565;28;74996;-79
2023/12/21 00:41:49;;;;;;;;;0.00;0.00;;;;;13.68;100.00;101417.53;5075781;28;45383;-79
2023/12/21 00:44:14;;;;;;;;;0.00;0.00;;;;;13.71;100.00;101403.53;5075941;28;45324;-80
2023/12/21 00:46:39;;;;;;;;;0.00;0.00;;;;;13.67;100.00;101418.44;5078767;28;45329;-79
2023/12/21 00:49:05;;;;;;;;;0.00;0.00;;;;;13.73;100.00;101422.63;5065827;28;75337;-79
2023/12/21 00:51:30;;;;;;;;;0.00;0.00;;;;;13.77;100.00;101410.31;5078184;28;72175;-79
2023/12/21 00:53:55;;;;;;;;;0.00;0.00;;;;;13.80;100.00;101403.22;5078511;28;65377;-78
2023/12/21 00:56:20;;;;;;;;;0.00;0.00;;;;;13.76;100.00;101393.75;5078461;28;54188;-79
2023/12/21 00:58:46;;;;;;;;;0.00;0.00;;;;;13.78;100.00;101391.97;5078122;28;75443;-79
2023/12/21 01:01:11;;;;;;;;;0.00;0.00;;;;;13.78;100.00;101391.06;5077669;28;73037;-79
2023/12/21 01:03:36;;;;;;;;;0.00;0.00;;;;;13.78;100.00;101393.69;5079278;28;45393;-79
2023/12/21 01:06:02;;;;;;;;;0.00;0.00;;;;;13.72;100.00;101387.78;5077283;28;68827;-79
2023/12/21 01:08:27;;;;;;;;;0.00;0.00;;;;;13.66;100.00;101390.56;5078699;28;47246;-79
2023/12/21 01:10:52;;;;;;;;;0.00;0.00;;;;;13.69;100.00;101395.72;5077417;28;73401;-79
2023/12/21 01:13:18;;;;;;;;;0.00;0.00;;;;;13.74;100.00;101383.34;5060274;28;54702;-79
2023/12/21 01:15:43;;;;;;;;;1.00;1.00;;;;;13.75;100.00;101374.56;5077723;28;69104;-79
2023/12/21 01:18:08;;;;;;;;;0.00;0.00;;;;;13.74;100.00;101378.13;5077455;28;75970;-79
2023/12/21 01:20:34;;;;;;;;;0.00;0.00;;;;;13.77;100.00;101369.31;5076524;28;71911;-80
2023/12/21 01:22:59;;;;;;;;;0.00;0.00;;;;;13.79;100.00;101358.78;5060390;28;45449;-79
2023/12/21 01:25:24;;;;;;;;;0.00;0.00;;;;;13.69;100.00;101360.84;5077523;28;68401;-79
2023/12/21 01:27:50;;;;;;;;;0.00;0.00;;;;;13.73;100.00;101359.84;5077294;28;74984;-79
2023/12/21 01:30:15;;;;;;;;;0.00;0.00;;;;;13.72;100.00;101356.38;5077611;28;70160;-80
2023/12/21 01:32:40;;;;;;;;;0.00;0.00;;;;;13.71;100.00;101349.44;5078525;28;45449;-80
2023/12/21 01:35:06;;;;;;;;;0.00;0.00;;;;;13.68;100.00;101344.28;5078071;28;62844;-79
2023/12/21 01:37:31;;;;;;;;;0.00;0.00;;;;;13.73;100.00;101331.91;5077188;28;46338;-79
2023/12/21 01:39:57;;;;;;;;;0.00;0.00;;;;;13.64;100.00;101358.38;5077312;28;45472;-80
2023/12/21 01:42:22;;;;;;;;;0.00;0.00;;;;;13.79;100.00;101345.72;5078588;28;45603;-78
2023/12/21 01:44:47;;;;;;;;;0.00;0.00;;;;;13.80;100.00;101326.47;5078125;28;46220;-79
2023/12/21 01:47:13;;;;;;;;;0.00;0.00;;;;;13.81;100.00;101330.81;5077832;27;62510;-79
2023/12/21 01:49:39;;;;;;;;;0.00;0.00;;;;;13.62;100.00;101338.41;5058819;28;73294;-79
2023/12/21 01:52:05;;;;;;;;;2.25;2.25;;;;;13.76;100.00;101315.25;5060133;28;45432;-79
2023/12/21 01:54:31;;;;;;;;;0.00;0.00;;;;;13.81;100.00;101310.72;5078174;28;45363;-79
2023/12/21 01:56:56;;;;;;;;;0.00;0.00;;;;;13.87;100.00;101314.91;5077933;28;46205;-79
2023/12/21 01:59:22;;;;;;;;;0.00;0.00;;;;;13.70;100.00;101312.84;5058803;28;72954;-79
2023/12/21 02:01:47;;;;;;;;;0.00;0.00;;;;;13.63;100.00;101311.31;5059165;28;66918;-79
2023/12/21 02:04:12;;;;;;;;;0.00;0.00;;;;;13.71;100.00;101301.50;5078096;28;51194;-79
2023/12/21 02:06:39;;;;;;;;;0.00;0.00;;;;;13.66;100.00;101291.16;5076277;28;71283;-80
2023/12/21 02:09:04;;;;;;;;;0.00;0.00;;;;;13.70;100.00;101290.13;5077027;28;45423;-80
2023/12/21 02:11:29;;;;;;;;;0.00;0.00;;;;;13.70;100.00;101278.84;5058660;28;49180;-79
2023/12/21 02:13:55;;;;;;;;;0.00;0.00;;;;;13.61;100.00;101287.81;5078253;28;45372;-80
2023/12/21 02:16:26;;;;;;;;;0.00;0.00;;;;;13.68;100.00;101273.66;5076852;28;76088;-80
2023/12/21 02:18:51;;;;;;;;;0.00;0.00;;;;;13.64;100.00;101271.19;5059252;28;45559;-80
2023/12/21 02:21:17;;;;;;;;;0.00;0.00;;;;;13.55;100.00;101269.72;5076978;28;69296;-80
2023/12/21 02:23:45;;;;;;;;;0.00;0.00;;;;;13.57;100.00;101265.31;5059594;28;45370;-80
2023/12/21 02:26:11;;;;;;;;;0.00;0.00;;;;;13.61;100.00;101255.59;5059309;28;55956;-79
2023/12/21 02:28:36;;;;;;;;;0.00;0.00;;;;;13.57;100.00;101265.31;5076629;28;45393;-80
2023/12/21 02:31:01;;;;;;;;;0.00;0.00;;;;;13.61;100.00;101266.06;5076922;28;68964;-78
2023/12/21 02:33:26;;;;;;;;;0.00;0.00;;;;;13.66;100.00;101265.00;5076788;28;70912;-80
2023/12/21 02:35:52;;;;;;;;;0.00;0.00;;;;;13.63;100.00;101275.59;5076535;28;75224;-80
2023/12/21 02:38:17;;;;;;;;;0.00;0.00;;;;;13.65;100.00;101276.38;5076791;28;45494;-79
2023/12/21 02:40:42;;;;;;;;;0.00;0.00;;;;;13.70;100.00;101270.97;5058391;28;70587;-79
2023/12/21 02:43:08;;;;;;;;;0.00;0.00;;;;;13.67;100.00;101265.84;5058400;28;70327;-79
2023/12/21 02:45:33;;;;;;;;;0.00;0.00;;;;;13.68;100.00;101265.78;5075779;28;46614;-79
2023/12/21 02:47:59;;;;;;;;;0.00;0.00;;;;;13.66;100.00;101264.16;5076756;28;56078;-80
2023/12/21 02:50:24;;;;;;;;;0.00;0.00;;;;;13.70;100.00;101243.06;5076975;28;45383;-80
2023/12/21 02:52:49;;;;;;;;;0.00;0.00;;;;;13.64;100.00;101266.81;5076050;28;70544;-80
2023/12/21 02:55:15;;;;;;;;;0.00;0.00;;;;;13.59;100.00;101254.78;5077199;28;45415;-80
2023/12/21 02:57:40;;;;;;;;;0.00;0.00;;;;;13.68;100.00;101250.09;5077276;28;45407;-80
2023/12/21 03:00:06;;;;;;;;;0.00;0.00;;;;;13.70;100.00;101250.06;5058292;28;69611;-79
2023/12/21 03:02:31;;;;;;;;;0.00;0.00;;;;;13.68;100.00;101251.88;5057985;28;45301;-80
2023/12/21 03:04:56;;;;;;;;;0.00;0.00;;;;;13.67;100.00;101242.31;5076676;28;49243;-80
2023/12/21 03:07:22;;;;;;;;;0.00;0.00;;;;;13.72;100.00;101237.78;5076000;28;60095;-79
2023/12/21 03:09:47;;;;;;;;;0.00;0.00;;;;;13.72;100.00;101246.50;5075399;28;67808;-80
2023/12/21 03:12:12;;;;;;;;;0.00;0.00;;;;;13.70;100.00;101234.34;5076142;28;69127;-79
2023/12/21 03:14:38;;;;;;;;;0.00;0.00;;;;;13.71;100.00;101230.84;5057869;28;71869;-79
2023/12/21 03:17:03;;;;;;;;;0.00;0.00;;;;;13.72;100.00;101233.41;5075879;28;73504;-80
2023/12/21 03:19:28;;;;;;;;;0.00;0.00;;;;;13.73;100.00;101224.66;5057057;28;45372;-79
2023/12/21 03:21:54;;;;;;;;;0.00;0.00;;;;;13.74;100.00;101228.09;5076711;28;45401;-79
2023/12/21 03:24:19;;;;;;;;;0.00;0.00;;;;;13.74;100.00;101221.13;5076123;28;67491;-80
2023/12/21 03:26:46;;;;;;;;;0.00;0.00;;;;;13.69;100.00;101225.66;5076279;28;61603;-80
2023/12/21 03:29:11;;;;;;;;;23.50;21.25;;;;;13.75;100.00;101211.50;5076266;28;45396;-79
2023/12/21 03:31:37;;;;;;;;;0.00;0.00;;;;;13.75;100.00;101211.50;5076006;28;69451;-79
2023/12/21 03:34:02;;;;;;;;;0.00;0.00;;;;;13.75;100.00;101203.66;5076081;28;46513;-79
2023/12/21 03:36:27;;;;;;;;;0.00;0.00;;;;;13.79;100.00;101205.25;5057387;28;45850;-79
2023/12/21 03:38:53;;;;;;;;;0.00;0.00;;;;;13.75;100.00;101201.91;5075644;28;67485;-79
2023/12/21 03:41:18;;;;;;;;;0.00;0.00;;;;;13.77;100.00;101204.47;5076498;28;45302;-79
2023/12/21 03:43:43;;;;;;;;;0.00;0.00;;;;;13.73;100.00;101198.47;5055376;28;75621;-80
2023/12/21 03:46:09;;;;;;;;;0.00;0.00;;;;;13.80;100.00;101193.91;5055213;28;71972;-79
2023/12/21 03:48:35;;;;;;;;;0.00;0.00;;;;;13.80;100.00;101186.06;5045030;28;45282;-79
2023/12/21 03:51:00;;;;;;;;;0.00;0.00;;;;;13.81;100.00;101187.75;5057394;28;45590;-79
2023/12/21 03:53:25;;;;;;;;;0.00;0.00;;;;;13.82;100.00;101173.78;5075351;28;75376;-79
2023/12/21 03:55:51;;;;;;;;;0.00;0.00;;;;;13.80;100.00;101162.50;5075337;28;73106;-79
2023/12/21 03:58:16;;;;;;;;;0.00;0.00;;;;;13.86;100.00;101164.03;5076223;28;45363;-80
2023/12/21 04:00:41;;;;;;;;;0.00;0.00;;;;;13.81;100.00;101145.03;5076548;28;45317;-79
2023/12/21 04:03:07;;;;;;;;;0.00;0.00;;;;;13.82;100.00;101131.91;5074667;28;72636;-79
2023/12/21 04:05:32;;;;;;;;;0.00;0.00;;;;;13.85;100.00;101130.94;5075343;28;72964;-79
2023/12/21 04:07:57;;;;;;;;;0.00;0.00;;;;;13.88;100.00;101113.34;5075162;28;45467;-79
2023/12/21 04:10:22;;;;;;;;;0.00;0.00;;;;;13.95;100.00;101098.28;5076377;28;45341;-79
2023/12/21 04:12:48;;;;;;;;;0.00;0.00;;;;;13.94;100.00;101107.03;5075212;28;75392;-79
2023/12/21 04:15:13;;;;;;;;;0.00;0.00;;;;;14.00;100.00;101103.34;5075416;28;63220;-79
2023/12/21 04:17:38;;;;;;;;;1.00;1.00;;;;;14.00;100.00;101093.72;5075917;28;45340;-79
2023/12/21 04:20:05;;;;;;;;;0.00;0.00;;;;;13.96;100.00;101092.13;5068303;28;70977;-79
2023/12/21 04:22:30;;;;;;;;;0.00;0.00;;;;;13.99;100.00;101094.63;5075853;28;45359;-79
2023/12/21 04:24:55;;;;;;;;;0.00;0.00;;;;;13.97;100.00;101093.84;5069671;27;45282;-80
2023/12/21 04:27:21;;;;;;;;;0.00;0.00;;;;;13.96;100.00;101099.13;5086848;27;56895;-80
2023/12/21 04:29:46;;;;;;;;;0.00;0.00;;;;;13.98;100.00;101095.53;5075144;28;69692;-79
2023/12/21 04:32:11;;;;;;;;;0.00;0.00;;;;;14.05;100.00;101094.41;5074418;28;75342;-79
2023/12/21 04:34:37;;;;;;;;;0.00;0.00;;;;;14.04;100.00;101102.31;5075812;28;45752;-79
2023/12/21 04:37:02;;;;;;;;;0.00;0.00;;;;;14.01;100.00;101084.97;5075754;28;45566;-79
2023/12/21 04:39:28;;;;;;;;;0.00;0.00;;;;;14.03;100.00;101085.75;5075830;28;45308;-79
2023/12/21 04:41:53;;;;;;;;;0.00;0.00;;;;;14.08;100.00;101091.69;5073779;28;75418;-79
2023/12/21 04:44:19;;;;;;;;;0.00;0.00;;;;;14.14;100.00;101095.81;5081636;27;62325;-80
2023/12/21 04:46:47;;;;;;;;;0.00;0.00;;;;;14.19;100.00;101088.66;5092564;27;45411;-79
2023/12/21 04:49:13;;;;;;;;;0.00;0.00;;;;;14.19;100.00;101075.56;5075587;28;45363;-79
2023/12/21 04:51:39;;;;;;;;;0.00;0.00;;;;;14.23;100.00;101079.75;5075751;28;46446;-79
2023/12/21 04:54:04;;;;;;;;;0.00;0.00;;;;;14.14;100.00;101087.97;5074601;28;73125;-80
2023/12/21 04:56:29;;;;;;;;;0.00;0.00;;;;;14.14;100.00;101085.34;5074590;28;45257;-79
2023/12/21 04:58:55;;;;;;;;;0.00;0.00;;;;;14.20;100.00;101082.50;5074487;28;70313;-79
2023/12/21 05:01:20;;;;;;;;;0.00;0.00;;;;;14.18;100.00;101079.09;5072517;28;75566;-79
2023/12/21 05:03:45;;;;;;;;;0.00;0.00;;;;;14.25;100.00;101070.09;5074545;28;73151;-79
2023/12/21 05:06:11;;;;;;;;;0.00;0.00;;;;;14.24;100.00;101063.13;5074604;28;64976;-79
2023/12/21 05:08:36;;;;;;;;;0.00;0.00;;;;;14.28;100.00;101062.13;5075390;27;58449;-79
2023/12/21 05:11:02;;;;;;;;;0.00;0.00;;;;;14.23;100.00;101061.44;5075313;28;46371;-78
2023/12/21 05:13:27;;;;;;;;;0.00;0.00;;;;;14.28;100.00;101056.00;5075526;28;45459;-79
2023/12/21 05:15:52;;;;;;;;;0.00;0.00;;;;;14.34;100.00;101050.56;5075357;28;45454;-79
2023/12/21 05:18:18;;;;;;;;;0.00;0.00;;;;;14.34;100.00;101055.78;5056289;28;45414;-79
2023/12/21 05:20:43;;;;;;;;;0.00;0.00;;;;;14.39;100.00;101055.59;5074376;28;64848;-79
2023/12/21 05:23:08;;;;;;;;;0.00;0.00;;;;;14.27;100.00;101070.03;5075166;28;46625;-79
2023/12/21 05:25:34;;;;;;;;;0.00;0.00;;;;;14.38;100.00;101054.75;5074524;28;67327;-79
2023/12/21 05:27:59;;;;;;;;;0.00;0.00;;;;;14.38;100.00;101054.75;5063269;28;69582;-79
2023/12/21 05:30:24;;;;;;;;;0.00;0.00;;;;;14.43;100.00;101052.81;5073541;28;75611;-79
2023/12/21 05:32:50;;;;;;;;;0.00;0.00;;;;;14.47;100.00;101059.63;5077159;28;72433;-79
2023/12/21 05:35:15;;;;;;;;;0.00;0.00;;;;;14.46;100.00;101059.66;5077037;28;66344;-79
2023/12/21 05:37:41;;;;;;;;;0.00;0.00;;;;;14.46;100.00;101071.00;5078405;27;45538;-79
2023/12/21 05:40:07;;;;;;;;;0.00;0.00;;;;;14.49;100.00;101073.50;5078707;28;46032;-79
2023/12/21 05:42:32;;;;;;;;;0.00;0.00;;;;;14.45;100.00;101065.81;5078436;28;45365;-79
2023/12/21 05:44:58;;;;;;;;;0.00;0.00;;;;;14.50;100.00;101042.91;5071472;27;67327;-80
2023/12/21 05:47:23;;;;;;;;;0.00;0.00;;;;;14.57;100.00;101035.66;5091641;27;45498;-79
2023/12/21 05:49:48;;;;;;;;;0.00;0.00;;;;;14.56;100.00;101031.34;5078431;28;47196;-80
2023/12/21 05:52:14;;;;;;;;;0.00;0.00;;;;;14.61;100.00;101022.41;5076422;28;73211;-79
2023/12/21 05:54:39;;;;;;;;;0.00;0.00;;;;;14.60;100.00;101025.94;5096161;27;58752;-79
2023/12/21 05:57:04;;;;;;;;;0.00;0.00;;;;;14.63;100.00;101010.09;5094431;27;45202;-79
2023/12/21 05:59:30;;;;;;;;;0.00;0.00;;;;;14.58;100.00;101009.44;5076791;28;72962;-80
2023/12/21 06:01:55;;;;;;;;;0.00;0.00;;;;;14.64;100.00;101000.47;5078346;28;45410;-78
2023/12/21 06:04:20;;;;;;;;;0.00;0.00;;;;;14.63;100.00;100994.38;5078614;28;45285;-79
2023/12/21 06:06:46;;;;;;;;;0.00;0.00;;;;;14.60;100.00;100984.03;5059126;28;68116;-80
2023/12/21 06:09:11;;;;;;;;;0.00;0.00;;;;;14.61;100.00;100983.09;5077171;28;45882;-80
2023/12/21 06:11:37;;;;;;;;;0.00;0.00;;;;;14.63;100.00;100993.53;5063145;28;57987;-80
2023/12/21 06:14:02;;;;;;;;;0.00;0.00;;;;;14.60;100.00;101004.13;5076991;28;68957;-81
2023/12/21 06:16:28;;;;;;;;;0.00;0.00;;;;;14.55;100.00;101004.28;5078310;28;45329;-81
2023/12/21 06:18:53;;;;;;;;;0.00;0.00;;;;;14.58;100.00;100991.13;5077540;28;46250;-79
2023/12/21 06:21:18;;;;;;;;;0.00;0.00;;;;;14.62;100.00;100997.06;5077098;28;72198;-79
2023/12/21 06:23:44;;;;;;;;;0.00;0.00;;;;;14.46;100.00;101021.22;5060251;28;45571;-78
2023/12/21 06:26:09;;;;;;;;;0.00;0.00;;;;;14.63;100.00;101022.34;5059133;28;45458;-81
2023/12/21 06:28:34;;;;;;;;;0.00;0.00;;;;;14.63;100.00;101011.88;5075368;28;56675;-82
2023/12/21 06:31:00;;;;;;;;;0.00;0.00;;;;;14.62;100.00;101013.63;5058622;28;68700;-83
2023/12/21 06:33:26;;;;;;;;;0.00;0.00;;;;;14.61;100.00;101016.31;5077654;28;45494;-81
2023/12/21 06:35:52;;;;;;;;;0.00;0.00;;;;;14.68;100.00;101023.00;5077690;28;45528;-80
2023/12/21 06:38:17;;;;;;;;;0.00;0.00;;;;;14.67;100.00;101022.16;5059288;28;47768;-81
2023/12/21 06:40:42;;;;;;;;;0.00;0.00;;;;;14.68;100.00;101018.63;5077114;28;63600;-80
2023/12/21 06:43:08;;;;;;;;;0.00;0.00;;;;;14.68;100.00;101021.22;5076701;28;45362;-84
2023/12/21 06:45:33;;;;;;;;;0.00;0.00;;;;;14.55;100.00;101029.66;5043772;28;50427;-80
2023/12/21 06:48:00;;;;;;;;;0.00;0.00;;;;;14.69;100.00;101004.63;5056002;28;74525;-80
2023/12/21 06:50:25;;;;;;;;;0.00;0.00;;;;;14.66;100.00;101027.47;5057080;28;45333;-82
2023/12/21 06:52:50;;;;;;;;;0.00;0.00;;;;;14.76;100.00;101022.69;5068210;28;45832;-80
2023/12/21 06:55:16;;;;;;;;;0.00;0.00;;;;;14.61;100.00;101051.22;5058548;28;45426;-79
2023/12/21 06:57:41;;;;;;;;;0.00;0.00;;;;;14.78;100.00;101020.84;5074000;28;72311;-78
2023/12/21 07:00:09;;;;;;;;;0.00;0.00;;;;;14.83;100.00;101011.88;5037007;28;74065;-79
2023/12/21 07:02:35;;;;;;;;;0.00;0.00;;;;;14.75;100.00;101024.47;5076132;28;45423;-79
2023/12/21 07:05:00;;;;;;;;;0.00;0.00;;;;;14.85;100.00;101007.41;5070079;28;45669;-79
2023/12/21 07:07:25;;;;;;;;;0.00;0.00;;;;;14.92;100.00;101015.88;5075938;28;74539;-80
2023/12/21 07:09:50;;;;;;;;;0.00;0.00;;;;;14.95;100.00;101034.13;5075608;28;61620;-78
2023/12/21 07:12:17;;;;;;;;;0.00;0.00;;;;;15.01;100.00;101048.72;5074991;28;66976;-79
2023/12/21 07:14:42;;;;;;;;;0.00;0.00;;;;;15.04;100.00;101027.59;5077062;28;45548;-80
2023/12/21 07:17:07;;;;;;;;;0.00;0.00;;;;;14.98;100.00;101051.47;5071263;28;63342;-80
2023/12/21 07:19:33;;;;;;;;;0.00;0.00;;;;;15.04;100.00;101046.84;5059780;28;61790;-80
2023/12/21 07:21:58;;;;;;;;;0.00;0.00;;;;;15.02;100.00;101042.56;5043816;28;45308;-81
2023/12/21 07:24:23;;;;;;;;;0.00;0.00;;;;;15.03;100.00;101037.25;5068575;28;72214;-80
2023/12/21 07:26:49;;;;;;;;;0.00;0.00;;;;;15.03;100.00;101039.88;5057595;28;46080;-80
2023/12/21 07:29:14;;;;;;;;;0.00;0.00;;;;;15.04;100.00;101045.97;5037415;28;72705;-80
2023/12/21 07:31:40;;;;;;;;;0.00;0.00;;;;;15.06;100.00;101039.75;5037376;28;69517;-80
2023/12/21 07:34:06;;;;;;;;;0.00;0.00;;;;;15.04;100.00;101038.09;5038524;28;45485;-79
2023/12/21 07:36:31;;;;;;;;;0.00;0.00;;;;;14.97;100.00;101044.50;5061114;28;46394;-81
2023/12/21 07:38:57;;;;;;;;;0.00;0.00;;;;;14.99;100.00;101016.47;5059802;28;51215;-80
2023/12/21 07:41:22;;;;;;;;;0.00;0.00;;;;;15.01;100.00;101019.91;5075472;28;60249;-81
2023/12/21 07:43:47;;;;;;;;;0.00;0.00;;;;;15.01;100.00;101006.78;5075695;28;68499;-81
2023/12/21 07:46:13;;;;;;;;;0.00;0.00;;;;;14.97;100.00;101007.81;5075528;28;75635;-83
2023/12/21 07:48:39;;;;;;;;;0.00;0.00;;;;;14.98;100.00;101014.78;5056486;28;46356;-82
2023/12/21 07:51:05;;;;;;;;;0.00;0.00;;;;;15.02;100.00;101011.09;5054028;28;45462;-81
2023/12/21 07:53:30;;;;;;;;;0.00;0.00;;;;;14.93;100.00;101004.47;5055049;28;45926;-82
2023/12/21 07:55:55;;;;;;;;;0.00;0.00;;;;;14.89;100.00;101009.03;5054349;28;64945;-83
2023/12/21 07:58:21;;;;;;;;;0.00;0.00;;;;;14.87;100.00;100999.50;5037109;28;61607;-83
2023/12/21 08:00:46;;;;;;;;;0.00;0.00;;;;;14.94;100.00;100998.31;5055052;28;68283;-82
2023/12/21 08:03:11;;;;;;;;;0.00;0.00;;;;;14.95;100.00;101012.28;5039198;28;53061;-82
2023/12/21 08:05:37;;;;;;;;;0.00;0.00;;;;;14.93;100.00;101001.00;5075128;28;71655;-83
2023/12/21 08:08:04;;;;;;;;;1.00;1.00;;;;;14.95;100.00;100994.81;5067412;28;62422;-82
2023/12/21 08:10:30;;;;;;;;;0.00;0.00;;;;;14.94;100.00;100989.63;5037520;28;45490;-82
2023/12/21 08:12:55;;;;;;;;;0.00;0.00;;;;;14.94;100.00;100973.88;5053684;28;45557;-83
2023/12/21 08:15:20;;;;;;;;;0.00;0.00;;;;;14.87;100.00;100971.50;5041491;28;74767;-83
2023/12/21 08:17:51;;;;;;;;;0.00;0.00;;;;;14.88;100.00;100961.91;5037344;28;45344;-83
2023/12/21 08:20:16;;;;;;;;;0.00;0.00;;;;;14.87;100.00;100979.38;5055440;28;45543;-82
2023/12/21 08:22:41;;;;;;;;;0.00;0.00;;;;;14.84;100.00;100963.81;5062090;28;45376;-83
2023/12/21 08:25:07;;;;;;;;;0.00;0.00;;;;;14.92;100.00;100949.53;5075453;28;46192;-82
2023/12/21 08:27:32;;;;;;;;;0.00;0.00;;;;;14.85;100.00;100946.31;5075952;28;45566;-83
2023/12/21 08:29:59;;;;;;;;;0.00;0.00;;;;;14.91;100.00;100961.75;5056399;28;67069;-82
2023/12/21 08:32:27;;;;;;;;;0.00;0.00;;;;;14.94;100.00;100956.38;5047015;28;45357;-82
2023/12/21 08:34:53;;;;;;;;;0.00;0.00;;;;;14.97;100.00;100965.88;5037784;28;47071;-82
2023/12/21 08:37:18;;;;;;;;;0.00;0.00;;;;;15.02;100.00;100942.94;5037698;28;45510;-83
2023/12/21 08:39:43;;;;;;;;;0.00;0.00;;;;;15.01;100.00;100952.59;5054574;28;67176;-82
2023/12/21 08:42:09;;;;;;;;;0.00;0.00;;;;;15.01;100.00;100978.78;5037335;28;45495;-82
2023/12/21 08:44:40;;;;;;;;;0.00;0.00;;;;;15.10;100.00;100978.41;5063530;28;74584;-82
2023/12/21 08:47:05;;;;;;;;;0.00;0.00;;;;;15.14;100.00;100979.13;5075930;28;45385;-82
2023/12/21 08:49:31;;;;;;;;;0.00;0.00;;;;;15.17;100.00;100975.50;5075752;28;45368;-81
2023/12/21 08:51:56;;;;;;;;;0.00;0.00;;;;;15.15;100.00;100970.31;5075896;28;45429;-81
2023/12/21 08:54:21;;;;;;;;;0.00;0.00;;;;;15.19;100.00;100977.16;5074642;28;67297;-81
2023/12/21 08:56:48;;;;;;;;;0.00;0.00;;;;;15.21;100.00;100977.06;5075639;28;48082;-82
2023/12/21 08:59:13;;;;;;;;;0.00;0.00;;;;;15.23;100.00;100981.31;5057916;28;45355;-82
2023/12/21 09:01:38;;;;;;;;;0.00;0.00;;;;;15.25;100.00;100986.50;5075340;28;58176;-82
2023/12/21 09:04:04;;;;;;;;;0.00;0.00;;;;;15.26;100.00;100981.16;5057424;28;46463;-82
2023/12/21 09:06:31;;;;;;;;;0.00;0.00;;;;;15.33;100.00;100981.75;5076834;28;45399;-83
2023/12/21 09:08:56;;;;;;;;;0.00;0.00;;;;;15.40;100.00;100984.97;5061191;28;45417;-83
2023/12/21 09:11:22;;;;;;;;;1.00;0.00;;;;;15.28;100.00;100986.34;5060957;28;45613;-82
2023/12/21 09:13:47;;;;;;;;;0.00;0.00;;;;;15.31;100.00;100991.47;5078604;28;58839;-85
2023/12/21 09:16:14;;;;;;;;;0.00;0.00;;;;;15.45;100.00;100969.84;5079222;28;45286;-82
2023/12/21 09:18:42;;;;;;;;;0.00;0.00;;;;;15.36;100.00;100983.38;5079201;28;45261;-83
2023/12/21 09:21:07;;;;;;;;;0.00;0.00;;;;;15.31;100.00;100988.00;5079137;28;45416;-82
2023/12/21 09:23:33;;;;;;;;;0.00;0.00;;;;;15.37;100.00;100969.38;5077772;28;71909;-81
2023/12/21 09:25:59;;;;;;;;;0.00;0.00;;;;;15.39;100.00;100975.38;5078828;28;45375;-82
2023/12/21 09:28:24;;;;;;;;;0.00;0.00;;;;;15.41;100.00;100973.53;5078261;28;61229;-83
2023/12/21 09:30:49;;;;;;;;;0.00;0.00;;;;;15.40;100.00;100979.72;5042827;28;70454;-81
2023/12/21 09:33:15;;;;;;;;;0.00;0.00;;;;;15.48;100.00;100969.72;5078206;28;59686;-82
2023/12/21 09:35:40;;;;;;;;;0.00;0.00;;;;;15.31;100.00;100972.28;5078459;28;56932;-83
2023/12/21 09:38:05;;;;;;;;;0.00;0.00;;;;;15.28;100.00;100968.00;5077605;28;67204;-83
2023/12/21 09:40:33;;;;;;;;;0.00;0.00;;;;;15.40;100.00;100966.59;5060471;28;45547;-83
2023/12/21 09:43:03;;;;;;;;;0.00;0.00;;;;;15.32;100.00;100952.97;5061011;28;46349;-82
2023/12/21 09:45:29;;;;;;;;;0.00;0.00;;;;;15.22;100.00;100963.03;5078575;28;45336;-83
2023/12/21 09:47:55;;;;;;;;;0.00;0.00;;;;;15.39;100.00;100950.00;5078116;28;60129;-82
2023/12/21 09:50:20;;;;;;;;;0.00;0.00;;;;;15.30;100.00;100966.16;5059753;28;61787;-83
2023/12/21 09:52:48;;;;;;;;;0.00;0.00;;;;;15.34;100.00;100945.88;5059842;28;46915;-82
2023/12/21 09:55:14;;;;;;;;;0.00;0.00;;;;;15.34;100.00;100949.38;5078388;28;45308;-82
2023/12/21 09:57:39;;;;;;;;;0.00;0.00;;;;;15.32;100.00;100934.63;5060501;28;45326;-82
2023/12/21 10:00:06;;;;;;;;;0.00;0.00;;;;;15.28;100.00;100942.66;5042569;28;71300;-82
2023/12/21 10:02:31;;;;;;;;;0.00;0.00;;;;;15.31;100.00;100956.53;5078391;28;45606;-82
2023/12/21 10:04:57;;;;;;;;;0.00;0.00;;;;;15.27;100.00;100948.78;5078287;28;45304;-83
2023/12/21 10:07:23;;;;;;;;;0.00;0.00;;;;;15.35;100.00;100929.25;5060157;28;45458;-83
2023/12/21 10:09:48;;;;;;;;;0.00;0.00;;;;;15.35;100.00;100939.72;5060302;28;45578;-82
2023/12/21 10:12:13;;;;;;;;;0.00;0.00;;;;;15.15;100.00;100927.50;5059053;28;75786;-82
2023/12/21 10:14:39;;;;;;;;;0.00;0.00;;;;;15.31;100.00;100932.94;5078207;28;45489;-83
2023/12/21 10:17:10;;;;;;;;;0.00;0.00;;;;;15.31;100.00;100933.78;5059060;28;66089;-83
2023/12/21 10:19:38;;;;;;;;;0.00;0.00;;;;;15.32;100.00;100916.25;5078024;28;45649;-83
2023/12/21 10:22:03;;;;;;;;;0.00;0.00;;;;;15.29;100.00;100930.38;5059420;28;46320;-82
2023/12/21 10:24:31;;;;;;;;;0.00;0.00;;;;;15.25;100.00;100919.16;5059888;28;45386;-81
2023/12/21 10:26:56;;;;;;;;;0.00;0.00;;;;;15.39;100.00;100925.56;5078243;28;45302;-82
2023/12/21 10:29:22;;;;;;;;;0.00;0.00;;;;;15.30;100.00;100934.69;5059199;28;61555;-83
2023/12/21 10:31:48;;;;;;;;;0.00;0.00;;;;;15.40;100.00;100927.25;5059440;28;53926;-83
2023/12/21 10:34:17;;;;;;;;;0.00;0.00;;;;;15.29;100.00;100931.22;5077896;28;45555;-82
2023/12/21 10:36:44;;;;;;;;;0.00;0.00;;;;;15.35;100.00;100939.72;5077695;28;45431;-83
2023/12/21 10:39:14;;;;;;;;;0.00;0.00;;;;;15.31;100.00;100953.91;5078032;28;45442;-83
2023/12/21 10:41:41;;;;;;;;;0.00;0.00;;;;;15.41;100.00;100956.03;5059545;28;45753;-83
2023/12/21 10:44:07;;;;;;;;;0.00;0.00;;;;;15.43;100.00;100946.34;5059548;28;45542;-82
2023/12/21 10:46:34;;;;;;;;;0.00;0.00;;;;;15.37;100.00;100946.59;5078005;28;45402;-84
2023/12/21 10:49:00;;;;;;;;;0.00;0.00;;;;;15.42;100.00;100962.13;5059395;28;45479;-81
2023/12/21 10:51:29;;;;;;;;;0.00;0.00;;;;;15.50;100.00;100944.25;5077699;28;46325;-82
2023/12/21 10:53:57;;;;;;;;;0.00;0.00;;;;;15.54;100.00;100944.97;5059526;28;45369;-83
2023/12/21 10:56:23;;;;;;;;;0.00;0.00;;;;;15.57;100.00;100944.84;5077851;28;45539;-82
2023/12/21 10:58:50;;;;;;;;;0.00;0.00;;;;;15.58;100.00;100931.66;5059652;28;45388;-82
2023/12/21 11:01:16;;;;;;;;;0.00;0.00;;;;;15.52;100.00;100926.69;5077397;28;45526;-82
2023/12/21 11:03:43;;;;;;;;;0.00;0.00;;;;;15.62;100.00;100927.09;5058121;28;71060;-82
2023/12/21 11:06:08;;;;;;;;;0.00;0.00;;;;;15.47;100.00;100939.16;5059612;28;45374;-83
2023/12/21 11:08:36;;;;;;;;;0.00;0.00;;;;;15.54;100.00;100926.63;5058157;28;71408;-82